createdAt,value
2023-02-16T00:00:29.191Z,80.70
2023-02-16T00:02:56.056Z,86.65
2023-02-16T00:05:28.602Z,82.22
2023-02-16T00:07:56.368Z,86.95
2023-02-16T00:10:24.839Z,80.55
2023-02-16T00:13:11.310Z,87.22
2023-02-16T00:15:37.848Z,89.18
2023-02-16T00:18:14.578Z,90.60
2023-02-16T00:20:40.995Z,91.88
2023-02-16T00:23:07.368Z,81.22
2023-02-16T00:25:33.997Z,89.13
2023-02-16T00:28:14.469Z,79.32
2023-02-16T00:30:41.222Z,83.30
2023-02-16T00:33:19.575Z,91.55
2023-02-16T00:35:46.200Z,89.95
2023-02-16T00:38:13.279Z,89.20
2023-02-16T00:40:41.667Z,91.50
2023-02-16T00:43:13.444Z,84.43
2023-02-16T00:45:39.860Z,92.55
2023-02-16T00:48:06.279Z,87.75
2023-02-16T00:50:34.196Z,82.70
2023-02-16T00:53:02.724Z,89.47
2023-02-16T00:55:35.242Z,87.95
2023-02-16T00:58:28.295Z,92.68
2023-02-16T01:01:02.996Z,84.45
2023-02-16T01:03:29.927Z,77.68
2023-02-16T01:06:25.827Z,87.15
2023-02-16T01:09:13.221Z,90.45
2023-02-16T01:11:39.699Z,97.15
2023-02-16T01:14:06.173Z,85.82
2023-02-16T01:16:42.659Z,94.53
2023-02-16T01:19:11.861Z,84.15
2023-02-16T01:21:39.153Z,89.82
2023-02-16T01:24:05.806Z,92.65
2023-02-16T01:26:41.706Z,97.43
2023-02-16T01:29:15.311Z,92.80
2023-02-16T01:31:42.011Z,87.97
2023-02-16T01:34:08.715Z,97.85
2023-02-16T01:36:41.709Z,95.30
2023-02-16T01:39:11.423Z,88.35
2023-02-16T01:42:01.225Z,108.20
2023-02-16T01:44:34.399Z,89.20
2023-02-16T01:47:42.047Z,89.55
2023-02-16T01:50:20.179Z,89.32
2023-02-16T01:52:55.843Z,90.32
2023-02-16T01:55:28.433Z,91.60
2023-02-16T01:58:06.974Z,96.00
2023-02-16T02:00:57.249Z,89.70
2023-02-16T02:06:11.760Z,94.60
2023-02-16T02:09:08.270Z,98.38
2023-02-16T02:11:45.494Z,88.93
2023-02-16T02:14:17.743Z,92.05
2023-02-16T02:16:58.771Z,94.50
2023-02-16T02:19:25.401Z,85.88
2023-02-16T02:22:29.649Z,86.40
2023-02-16T02:25:14.047Z,92.10
2023-02-16T02:27:52.581Z,96.25
2023-02-16T02:30:37.648Z,100.68
2023-02-16T02:33:38.263Z,86.30
2023-02-16T02:36:14.262Z,89.90
2023-02-16T02:38:56.118Z,98.20
2023-02-16T02:41:54.403Z,92.63
2023-02-16T02:44:23.952Z,100.00
2023-02-16T02:46:51.237Z,95.57
2023-02-16T02:49:17.692Z,108.55
2023-02-16T02:51:44.179Z,101.03
2023-02-16T02:54:42.310Z,98.45
2023-02-16T02:57:50.428Z,97.25
2023-02-16T03:00:43.798Z,98.82
2023-02-16T03:03:19.334Z,89.85
2023-02-16T03:05:53.139Z,82.13
2023-02-16T03:08:23.667Z,100.90
2023-02-16T03:11:16.751Z,98.85
2023-02-16T03:13:47.109Z,96.93
2023-02-16T03:16:23.596Z,95.55
2023-02-16T03:19:09.166Z,100.55
2023-02-16T03:21:54.838Z,93.85
2023-02-16T03:24:45.419Z,96.25
2023-02-16T03:27:32.691Z,97.07
2023-02-16T03:30:01.273Z,91.35
2023-02-16T03:32:27.983Z,88.25
2023-02-16T03:34:54.425Z,86.90
2023-02-16T03:37:21.014Z,88.95
2023-02-16T03:40:06.813Z,91.10
2023-02-16T03:42:33.251Z,98.80
2023-02-16T03:44:59.944Z,92.50
2023-02-16T03:47:26.343Z,104.05
2023-02-16T03:49:52.819Z,96.93
2023-02-16T03:52:19.202Z,88.63
2023-02-16T03:54:45.753Z,92.25
2023-02-16T03:57:12.169Z,96.03
2023-02-16T03:59:38.587Z,102.63
2023-02-16T04:02:05.079Z,96.18
2023-02-16T04:04:31.576Z,97.82
2023-02-16T04:06:58.061Z,96.28
2023-02-16T04:09:24.543Z,88.20
2023-02-16T04:12:09.537Z,90.10
2023-02-16T04:14:35.930Z,94.25
2023-02-16T04:17:03.833Z,83.53
2023-02-16T04:19:30.602Z,98.78
2023-02-16T04:21:57.052Z,98.72
2023-02-16T04:24:23.530Z,94.40
2023-02-16T04:26:50.070Z,91.18
2023-02-16T04:29:16.502Z,95.60
2023-02-16T04:31:43.228Z,89.93
2023-02-16T04:34:09.774Z,90.05
2023-02-16T04:36:36.228Z,88.60
2023-02-16T04:39:02.654Z,105.30
2023-02-16T04:41:29.150Z,93.80
2023-02-16T04:43:55.617Z,91.82
2023-02-16T04:46:22.129Z,96.80
2023-02-16T04:48:48.548Z,94.72
2023-02-16T04:51:15.239Z,92.78
2023-02-16T04:53:41.762Z,89.30
2023-02-16T04:56:12.606Z,95.78
2023-02-16T04:58:39.181Z,91.97
2023-02-16T05:01:06.145Z,92.30
2023-02-16T05:03:33.658Z,103.28
2023-02-16T05:06:00.305Z,93.13
2023-02-16T05:08:27.612Z,88.28
2023-02-16T05:11:12.794Z,88.20
2023-02-16T05:13:58.001Z,87.80
2023-02-16T05:16:24.936Z,94.20
2023-02-16T05:18:51.414Z,91.57
2023-02-16T05:21:33.326Z,97.15
2023-02-16T05:24:02.000Z,80.65
2023-02-16T05:26:28.910Z,84.72
2023-02-16T05:28:55.713Z,94.13
2023-02-16T05:31:23.758Z,86.97
2023-02-16T05:33:50.274Z,94.55
2023-02-16T05:36:16.710Z,88.60
2023-02-16T05:38:43.360Z,84.65
2023-02-16T05:41:09.976Z,91.75
2023-02-16T05:43:36.445Z,85.30
2023-02-16T05:46:08.254Z,87.25
2023-02-16T05:48:34.684Z,93.97
2023-02-16T05:51:01.295Z,93.18
2023-02-16T05:53:27.963Z,89.80
2023-02-16T05:55:54.371Z,86.10
2023-02-16T05:58:20.902Z,96.50
2023-02-16T06:00:47.286Z,85.63
2023-02-16T06:03:13.797Z,89.72
2023-02-16T06:05:40.315Z,94.60
2023-02-16T06:08:06.747Z,87.68
2023-02-16T06:10:33.151Z,92.97
2023-02-16T06:12:59.530Z,86.85
2023-02-16T06:15:25.912Z,86.15
2023-02-16T06:17:52.367Z,86.75
2023-02-16T06:20:18.976Z,83.72
2023-02-16T06:22:45.361Z,95.63
2023-02-16T06:25:11.827Z,86.82
2023-02-16T06:27:38.473Z,79.45
2023-02-16T06:30:06.108Z,97.45
2023-02-16T06:32:33.525Z,86.05
2023-02-16T06:35:00.001Z,83.18
2023-02-16T06:37:26.472Z,92.15
2023-02-16T06:39:52.925Z,98.45
2023-02-16T06:42:19.460Z,92.43
2023-02-16T06:44:45.973Z,100.85
2023-02-16T06:47:12.407Z,101.40
2023-02-16T06:49:38.910Z,104.72
2023-02-16T06:52:05.409Z,111.85
2023-02-16T06:54:31.795Z,86.70
2023-02-16T06:56:58.196Z,90.18
2023-02-16T06:59:24.606Z,97.35
2023-02-16T07:01:51.001Z,101.63
2023-02-16T07:04:17.419Z,92.72
2023-02-16T07:06:43.925Z,97.05
2023-02-16T07:09:12.409Z,90.30
2023-02-16T07:11:39.335Z,110.38
2023-02-16T07:14:05.765Z,96.45
2023-02-16T07:16:35.241Z,99.35
2023-02-16T07:19:01.694Z,101.43
2023-02-16T07:21:28.097Z,96.88
2023-02-16T07:23:54.507Z,94.22
2023-02-16T07:26:21.025Z,101.35
2023-02-16T07:28:47.450Z,92.10
2023-02-16T07:31:18.210Z,100.65
2023-02-16T07:33:45.184Z,97.10
2023-02-16T07:36:13.105Z,89.78
2023-02-16T07:38:41.834Z,89.32
2023-02-16T07:41:09.883Z,96.32
2023-02-16T07:43:38.089Z,94.57
2023-02-16T07:46:05.426Z,90.20
2023-02-16T07:48:31.922Z,97.28
2023-02-16T07:50:58.415Z,97.70
2023-02-16T07:53:24.817Z,98.82
2023-02-16T07:55:51.238Z,96.05
2023-02-16T07:58:27.277Z,97.35
2023-02-16T08:00:54.931Z,96.70
2023-02-16T08:03:21.446Z,94.88
2023-02-16T08:05:48.169Z,94.13
2023-02-16T08:08:14.584Z,99.43
2023-02-16T08:10:41.105Z,108.93
2023-02-16T08:13:07.487Z,101.32
2023-02-16T08:15:33.863Z,97.53
2023-02-16T08:18:00.292Z,102.40
2023-02-16T08:20:43.186Z,100.78
2023-02-16T08:23:13.068Z,103.65
2023-02-16T08:25:39.599Z,97.28
2023-02-16T08:28:06.942Z,97.80
2023-02-16T08:30:34.755Z,97.65
2023-02-16T08:33:01.826Z,97.47
2023-02-16T08:35:31.964Z,95.38
2023-02-16T08:38:02.367Z,102.75
2023-02-16T08:40:29.956Z,95.55
2023-02-16T08:42:56.374Z,98.05
2023-02-16T08:45:22.847Z,91.07
2023-02-16T08:47:49.428Z,95.22
2023-02-16T08:50:16.946Z,98.63
2023-02-16T08:52:43.356Z,98.07
2023-02-16T08:55:09.763Z,93.97
2023-02-16T08:57:36.265Z,94.43
2023-02-16T09:00:22.666Z,94.55
2023-02-16T09:02:49.983Z,96.45
2023-02-16T09:05:16.528Z,93.57
2023-02-16T09:07:42.919Z,91.40
2023-02-16T09:10:09.635Z,88.55
2023-02-16T09:12:36.599Z,88.60
2023-02-16T09:15:03.161Z,88.50
2023-02-16T09:17:29.621Z,81.75
2023-02-16T09:19:56.358Z,87.47
2023-02-16T09:22:23.474Z,83.65
2023-02-16T09:24:49.865Z,88.38
2023-02-16T09:27:16.392Z,82.47
2023-02-16T09:29:43.933Z,83.13
2023-02-16T09:32:10.426Z,87.22
2023-02-16T09:34:37.172Z,86.05
2023-02-16T09:37:03.617Z,87.38
2023-02-16T09:39:30.338Z,81.13
2023-02-16T09:42:21.258Z,86.72
2023-02-16T09:45:11.186Z,88.72
2023-02-16T09:47:43.079Z,86.00
2023-02-16T09:50:38.245Z,85.25
2023-02-16T09:53:30.338Z,88.25
2023-02-16T09:56:07.346Z,87.13
2023-02-16T09:58:42.330Z,87.07
2023-02-16T10:01:20.340Z,94.70
2023-02-16T10:03:55.943Z,90.70
2023-02-16T10:06:31.607Z,83.63
2023-02-16T10:09:12.669Z,87.40
2023-02-16T10:12:04.027Z,87.90
2023-02-16T10:14:49.663Z,86.38
2023-02-16T10:17:28.272Z,89.75
2023-02-16T10:20:01.168Z,86.47
2023-02-16T10:22:36.825Z,88.18
2023-02-16T10:25:15.214Z,97.25
2023-02-16T10:27:44.537Z,97.40
2023-02-16T10:30:17.984Z,95.83
2023-02-16T10:32:59.561Z,95.70
2023-02-16T10:35:40.358Z,91.68
2023-02-16T10:38:18.268Z,94.55
2023-02-16T10:41:01.378Z,93.95
2023-02-16T10:43:39.969Z,96.80
2023-02-16T10:46:06.890Z,88.88
2023-02-16T10:48:33.412Z,93.75
2023-02-16T10:51:09.404Z,95.53
2023-02-16T10:54:05.769Z,93.65
2023-02-16T10:56:45.537Z,89.78
2023-02-16T10:59:18.833Z,93.53
2023-02-16T11:01:57.668Z,101.10
2023-02-16T11:04:38.422Z,96.78
2023-02-16T11:07:14.270Z,88.55
2023-02-16T11:09:42.055Z,92.97
2023-02-16T11:12:23.958Z,85.25
2023-02-16T11:14:53.241Z,143.52
2023-02-16T11:17:22.541Z,111.88
2023-02-16T11:20:24.455Z,102.87
2023-02-16T11:22:51.775Z,89.93
2023-02-16T11:25:18.168Z,95.10
2023-02-16T11:27:50.730Z,92.07
2023-02-16T11:30:23.368Z,92.68
2023-02-16T11:32:51.583Z,87.75
2023-02-16T11:35:18.950Z,99.22
2023-02-16T11:37:46.377Z,89.60
2023-02-16T11:40:51.210Z,94.10
2023-02-16T11:43:18.290Z,92.30
2023-02-16T11:45:56.531Z,92.07
2023-02-16T11:48:29.175Z,96.00
2023-02-16T11:51:00.302Z,95.47
2023-02-16T11:53:30.610Z,92.82
2023-02-16T11:58:40.412Z,91.18
2023-02-16T12:01:23.926Z,96.10
2023-02-16T12:04:41.528Z,100.75
2023-02-16T12:07:29.504Z,105.38
2023-02-16T12:10:09.463Z,106.07
2023-02-16T12:13:00.722Z,98.95
2023-02-16T12:15:36.520Z,99.32
2023-02-16T12:18:34.501Z,105.78
2023-02-16T12:21:17.358Z,103.88
2023-02-16T12:24:03.318Z,111.07
2023-02-16T12:26:35.836Z,111.47
2023-02-16T12:29:21.165Z,116.72
2023-02-16T12:32:03.335Z,106.03
2023-02-16T12:35:14.426Z,127.47
2023-02-16T12:38:22.153Z,128.15
2023-02-16T12:41:11.278Z,127.15
2023-02-16T12:43:52.256Z,131.85
2023-02-16T12:46:35.730Z,130.15
2023-02-16T12:49:34.430Z,147.13
2023-02-16T12:52:12.722Z,145.13
2023-02-16T12:54:51.517Z,133.65
2023-02-16T12:57:22.773Z,138.43
2023-02-16T12:59:56.581Z,135.80
2023-02-16T13:02:50.727Z,128.07
2023-02-16T13:05:21.151Z,139.43
2023-02-16T13:07:52.700Z,143.55
2023-02-16T13:10:36.246Z,131.98
2023-02-16T13:13:35.480Z,151.70
2023-02-16T13:16:24.109Z,131.73
2023-02-16T13:18:58.985Z,141.18
2023-02-16T13:21:54.927Z,137.98
2023-02-16T13:24:41.741Z,130.55
2023-02-16T13:27:32.179Z,153.27
2023-02-16T13:30:15.899Z,133.82
2023-02-16T13:33:02.642Z,129.35
2023-02-16T13:35:57.314Z,147.48
2023-02-16T13:38:45.261Z,128.60
2023-02-16T13:41:38.957Z,145.50
2023-02-16T13:44:16.226Z,127.05
2023-02-16T13:46:52.494Z,135.55
2023-02-16T13:49:32.986Z,136.02
2023-02-16T13:52:00.493Z,122.70
2023-02-16T13:54:31.396Z,128.73
2023-02-16T13:56:57.997Z,144.70
2023-02-16T13:59:24.460Z,135.60
2023-02-16T14:01:54.889Z,129.73
2023-02-16T14:04:27.560Z,131.85
2023-02-16T14:07:03.229Z,134.25
2023-02-16T14:09:31.021Z,138.98
2023-02-16T14:11:57.509Z,125.93
2023-02-16T14:14:42.144Z,139.48
2023-02-16T14:17:14.816Z,136.23
2023-02-16T14:20:22.808Z,133.55
2023-02-16T14:22:57.254Z,124.18
2023-02-16T14:25:33.048Z,132.93
2023-02-16T14:28:21.841Z,132.70
2023-02-16T14:30:57.954Z,139.00
2023-02-16T14:33:50.234Z,135.20
2023-02-16T14:36:19.819Z,134.82
2023-02-16T14:38:52.018Z,136.90
2023-02-16T14:41:33.437Z,132.52
2023-02-16T14:44:06.187Z,128.05
2023-02-16T14:46:41.765Z,138.95
2023-02-16T14:49:35.066Z,131.63
2023-02-16T14:52:35.938Z,130.10
2023-02-16T14:55:27.099Z,120.00
2023-02-16T14:58:04.109Z,117.93
2023-02-16T15:00:37.240Z,115.90
2023-02-16T15:03:15.028Z,116.65
2023-02-16T15:05:42.168Z,117.57
2023-02-16T15:08:16.248Z,117.80
2023-02-16T15:10:47.793Z,114.05
2023-02-16T15:13:27.745Z,120.35
2023-02-16T15:15:57.461Z,114.07
2023-02-16T15:18:34.099Z,108.70
2023-02-16T15:21:00.697Z,110.45
2023-02-16T15:23:34.681Z,108.50
2023-02-16T15:26:14.920Z,121.78
2023-02-16T15:31:18.052Z,117.75
2023-02-16T15:33:56.908Z,127.38
2023-02-16T15:36:39.565Z,115.90
2023-02-16T15:39:14.837Z,122.00
2023-02-16T15:41:46.003Z,135.75
2023-02-16T15:44:31.176Z,132.60
2023-02-16T15:47:14.125Z,134.57
2023-02-16T15:49:41.135Z,137.32
2023-02-16T15:52:18.118Z,135.10
2023-02-16T15:54:46.704Z,142.60
2023-02-16T15:57:30.836Z,149.10
2023-02-16T16:00:00.153Z,134.60
2023-02-16T16:02:38.385Z,154.02
2023-02-16T16:05:09.955Z,149.13
2023-02-16T16:07:40.029Z,151.93
2023-02-16T16:10:25.663Z,153.00
2023-02-16T16:12:54.569Z,159.50
2023-02-16T16:15:24.804Z,172.57
2023-02-16T16:17:53.223Z,146.48
2023-02-16T16:20:36.758Z,154.68
2023-02-16T16:23:24.967Z,157.95
2023-02-16T16:25:52.928Z,153.32
2023-02-16T16:28:28.585Z,157.32
2023-02-16T16:31:12.230Z,151.00
2023-02-16T16:34:17.763Z,155.73
2023-02-16T16:36:54.577Z,165.23
2023-02-16T16:39:32.621Z,184.18
2023-02-16T16:42:19.211Z,178.80
2023-02-16T16:44:55.785Z,175.27
2023-02-16T16:47:39.105Z,164.05
2023-02-16T16:50:36.738Z,157.60
2023-02-16T16:53:30.805Z,165.52
2023-02-16T16:55:57.937Z,153.40
2023-02-16T16:58:24.464Z,157.90
2023-02-16T17:00:50.924Z,146.55
2023-02-16T17:03:18.564Z,158.07
2023-02-16T17:05:45.968Z,158.77
2023-02-16T17:08:12.737Z,148.27
2023-02-16T17:10:40.967Z,149.48
2023-02-16T17:13:07.855Z,175.95
2023-02-16T17:15:34.236Z,162.77
2023-02-16T17:18:01.923Z,158.48
2023-02-16T17:20:28.462Z,169.93
2023-02-16T17:22:54.863Z,163.90
2023-02-16T17:25:21.291Z,155.70
2023-02-16T17:27:47.863Z,166.45
2023-02-16T17:30:14.963Z,156.52
2023-02-16T17:32:41.384Z,172.40
2023-02-16T17:35:08.089Z,151.70
2023-02-16T17:37:35.549Z,168.65
2023-02-16T17:40:03.278Z,185.75
2023-02-16T17:42:29.820Z,172.27
2023-02-16T17:44:56.285Z,164.32
2023-02-16T17:47:22.779Z,166.27
2023-02-16T17:49:49.179Z,164.32
2023-02-16T17:52:15.627Z,162.20
2023-02-16T17:54:42.013Z,157.48
2023-02-16T17:57:10.352Z,158.90
2023-02-16T17:59:36.873Z,154.48
2023-02-16T18:02:03.350Z,156.88
2023-02-16T18:04:29.784Z,158.40
2023-02-16T18:06:56.229Z,155.80
2023-02-16T18:09:24.479Z,158.77
2023-02-16T18:11:51.670Z,151.73
2023-02-16T18:14:18.096Z,162.18
2023-02-16T18:16:44.573Z,148.77
2023-02-16T18:19:14.656Z,160.40
2023-02-16T18:21:41.094Z,154.55
2023-02-16T18:24:07.533Z,144.35
2023-02-16T18:26:33.925Z,136.75
2023-02-16T18:29:00.395Z,144.73
2023-02-16T18:31:26.861Z,147.65
2023-02-16T18:33:53.406Z,145.38
2023-02-16T18:36:19.827Z,142.60
2023-02-16T18:38:46.248Z,152.35
2023-02-16T18:41:13.319Z,161.15
2023-02-16T18:43:39.767Z,173.23
2023-02-16T18:46:08.524Z,143.60
2023-02-16T18:48:35.239Z,145.10
2023-02-16T18:51:09.781Z,135.80
2023-02-16T18:53:37.650Z,137.98
2023-02-16T18:56:06.025Z,146.98
2023-02-16T18:58:33.044Z,143.00
2023-02-16T19:00:59.594Z,132.38
2023-02-16T19:03:26.091Z,129.50
2023-02-16T19:05:52.699Z,136.40
2023-02-16T19:08:19.102Z,132.27
2023-02-16T19:10:45.476Z,142.10
2023-02-16T19:13:11.898Z,130.65
2023-02-16T19:15:38.386Z,136.65
2023-02-16T19:18:04.956Z,139.65
2023-02-16T19:20:31.378Z,155.52
2023-02-16T19:22:57.857Z,153.98
2023-02-16T19:25:24.577Z,144.50
2023-02-16T19:27:51.129Z,143.20
2023-02-16T19:30:20.581Z,152.90
2023-02-16T19:32:47.318Z,145.68
2023-02-16T19:35:13.800Z,149.88
2023-02-16T19:37:40.350Z,139.63
2023-02-16T19:40:09.247Z,148.32
2023-02-16T19:42:36.364Z,143.20
2023-02-16T19:45:03.221Z,145.95
2023-02-16T19:47:29.641Z,155.05
2023-02-16T19:49:56.084Z,149.75
2023-02-16T19:52:22.567Z,145.50
2023-02-16T19:54:49.439Z,168.35
2023-02-16T19:57:16.034Z,156.98
2023-02-16T19:59:42.553Z,153.85
2023-02-16T20:02:11.955Z,173.07
2023-02-16T20:04:38.452Z,165.13
2023-02-16T20:07:05.740Z,151.60
2023-02-16T20:09:32.159Z,160.63
2023-02-16T20:11:58.604Z,156.38
2023-02-16T20:14:24.979Z,158.60
2023-02-16T20:16:51.835Z,168.30
2023-02-16T20:19:18.770Z,172.77
2023-02-16T20:21:46.269Z,166.18
2023-02-16T20:24:13.897Z,174.05
2023-02-16T20:26:44.155Z,155.02
2023-02-16T20:31:49.168Z,173.77
2023-02-16T20:34:15.878Z,173.00
2023-02-16T20:36:42.291Z,154.48
2023-02-16T20:39:09.111Z,180.80
2023-02-16T20:41:35.873Z,172.32
2023-02-16T20:44:02.952Z,166.02
2023-02-16T20:46:29.827Z,164.90
2023-02-16T20:48:56.740Z,178.05
2023-02-16T20:51:23.339Z,180.93
2023-02-16T20:53:49.962Z,158.25
2023-02-16T20:56:21.391Z,187.73
2023-02-16T20:58:49.386Z,190.93
2023-02-16T21:01:24.031Z,177.90
2023-02-16T21:03:51.656Z,170.27
2023-02-16T21:06:19.257Z,164.55
2023-02-16T21:08:45.807Z,168.05
2023-02-16T21:11:12.579Z,155.00
2023-02-16T21:13:40.558Z,174.48
2023-02-16T21:16:08.576Z,178.70
2023-02-16T21:18:36.869Z,185.25
2023-02-16T21:21:04.741Z,163.05
2023-02-16T21:23:31.238Z,164.00
2023-02-16T21:26:02.948Z,159.80
2023-02-16T21:28:29.801Z,160.40
2023-02-16T21:31:01.365Z,176.93
2023-02-16T21:33:27.807Z,174.52
2023-02-16T21:35:56.518Z,161.30
2023-02-16T21:38:22.932Z,170.63
2023-02-16T21:41:15.513Z,158.80
2023-02-16T21:43:42.431Z,149.90
2023-02-16T21:46:09.587Z,146.88
2023-02-16T21:48:45.128Z,164.50
2023-02-16T21:51:13.409Z,159.48
2023-02-16T21:53:39.891Z,157.98
2023-02-16T21:56:20.229Z,146.75
2023-02-16T21:58:47.303Z,151.25
2023-02-16T22:01:14.139Z,156.82
2023-02-16T22:03:40.875Z,154.88
2023-02-16T22:06:09.053Z,156.90
2023-02-16T22:08:37.896Z,136.35
2023-02-16T22:11:10.135Z,154.02
2023-02-16T22:13:37.680Z,151.77
2023-02-16T22:16:17.817Z,145.82
2023-02-16T22:18:44.745Z,156.15
2023-02-16T22:21:11.525Z,155.68
2023-02-16T22:23:39.103Z,133.07
2023-02-16T22:26:07.281Z,146.63
2023-02-16T22:28:35.248Z,159.68
2023-02-16T22:31:08.914Z,150.48
2023-02-16T22:33:35.393Z,147.75
2023-02-16T22:36:07.242Z,147.90
2023-02-16T22:38:34.639Z,144.85
2023-02-16T22:41:05.040Z,143.23
2023-02-16T22:43:31.934Z,149.60
2023-02-16T22:45:58.359Z,153.55
2023-02-16T22:48:26.258Z,149.18
2023-02-16T22:51:00.008Z,138.77
2023-02-16T22:53:27.062Z,141.75
2023-02-16T22:55:54.607Z,143.27
2023-02-16T22:58:21.460Z,130.48
2023-02-16T23:00:49.365Z,133.35
2023-02-16T23:03:16.297Z,143.85
2023-02-16T23:05:42.905Z,145.13
2023-02-16T23:08:10.515Z,139.95
2023-02-16T23:10:38.239Z,138.40
2023-02-16T23:13:09.448Z,134.80
2023-02-16T23:15:36.106Z,139.88
2023-02-16T23:18:02.586Z,129.25
2023-02-16T23:20:29.385Z,128.30
2023-02-16T23:22:55.800Z,135.48
2023-02-16T23:25:34.053Z,129.10
2023-02-16T23:28:02.607Z,126.55
2023-02-16T23:30:30.359Z,123.07
2023-02-16T23:32:57.190Z,141.45
2023-02-16T23:35:23.647Z,143.43
2023-02-16T23:37:50.129Z,132.65
2023-02-16T23:40:16.641Z,136.27
2023-02-16T23:42:43.026Z,132.52
2023-02-16T23:45:09.687Z,150.02
2023-02-16T23:47:36.188Z,147.63
2023-02-16T23:50:02.589Z,122.88
2023-02-16T23:52:29.023Z,131.90
2023-02-16T23:54:55.633Z,135.25
2023-02-16T23:57:22.096Z,137.20
2023-02-16T23:59:48.565Z,126.03
